Time;durP1;ratioP1;P1;durP2;ratioP2;P2;SDS_P1;SDS_P2;PMS_P1;PMS_P2;Temp;Humidity;BMP_temperature;BMP_pressure;BME280_temperature;BME280_humidity;BME280_pressure;Samples;Min_cycle;Max_cycle;Signal;HPM_P1;HPM_P2
2021/05/27 00:02:23;;;;;;;0.43;0.40;;;12.00;99.90;;;;;;4430038;32;20076;-87
2021/05/27 00:04:48;;;;;;;0.40;0.40;;;11.90;99.90;;;;;;4432078;32;20506;-86
2021/05/27 00:07:14;;;;;;;0.30;0.30;;;11.80;99.90;;;;;;4433199;32;20066;-86
2021/05/27 00:09:40;;;;;;;0.20;0.20;;;11.80;99.90;;;;;;4432731;32;20074;-86
2021/05/27 00:12:06;;;;;;;0.40;0.40;;;11.70;99.90;;;;;;4432964;32;20097;-86
2021/05/27 00:14:31;;;;;;;0.20;0.20;;;11.70;99.90;;;;;;4434065;32;20436;-86
2021/05/27 00:16:57;;;;;;;0.30;0.30;;;11.80;99.90;;;;;;4424312;32;20089;-86
2021/05/27 00:19:22;;;;;;;0.20;0.20;;;11.80;99.90;;;;;;4418046;32;20069;-86
2021/05/27 00:21:49;;;;;;;0.20;0.20;;;11.80;99.90;;;;;;4417765;32;20130;-86
2021/05/27 00:24:14;;;;;;;0.30;0.30;;;11.80;99.90;;;;;;4418353;32;20503;-86
2021/05/27 00:26:41;;;;;;;0.40;0.40;;;11.80;99.90;;;;;;4417698;32;20570;-86
2021/05/27 00:29:09;;;;;;;0.85;0.62;;;11.70;99.90;;;;;;4418905;32;20077;-86
2021/05/27 00:31:34;;;;;;;0.20;0.20;;;11.70;99.90;;;;;;4417278;32;20074;-86
2021/05/27 00:34:00;;;;;;;0.52;0.52;;;11.70;99.90;;;;;;4417509;32;20073;-87
2021/05/27 00:36:26;;;;;;;0.20;0.20;;;11.60;99.90;;;;;;4418358;32;20429;-86
2021/05/27 00:38:51;;;;;;;0.50;0.50;;;11.60;99.90;;;;;;4418346;32;20082;-86
2021/05/27 00:41:17;;;;;;;0.43;0.43;;;11.60;99.90;;;;;;4417653;32;20074;-86
2021/05/27 00:43:42;;;;;;;0.20;0.20;;;11.60;99.90;;;;;;4416636;32;20396;-86
2021/05/27 00:46:08;;;;;;;0.30;0.30;;;11.50;99.90;;;;;;4415669;32;20086;-86
2021/05/27 00:49:05;;;;;;;0.40;0.40;;;11.60;99.90;;;;;;4416862;32;20081;-86
2021/05/27 00:51:19;;;;;;;0.30;0.30;;;11.50;99.90;;;;;;4405799;32;20117;-86
2021/05/27 00:53:45;;;;;;;0.80;0.80;;;11.40;99.90;;;;;;4416848;32;20084;-86
2021/05/27 00:56:12;;;;;;;0.65;0.45;;;11.40;99.90;;;;;;4417274;32;20077;-86
2021/05/27 00:58:38;;;;;;;0.35;0.35;;;11.40;99.90;;;;;;4415720;32;20093;-86
2021/05/27 01:01:10;;;;;;;0.40;0.40;;;11.30;99.90;;;;;;4416236;32;20081;-86
2021/05/27 01:03:35;;;;;;;0.40;0.40;;;11.20;99.90;;;;;;4417131;32;20079;-86
2021/05/27 01:06:01;;;;;;;1.45;0.77;;;11.20;99.90;;;;;;4416298;32;20064;-86
2021/05/27 01:08:29;;;;;;;0.28;0.28;;;11.20;99.90;;;;;;4416953;32;20058;-86
2021/05/27 01:10:55;;;;;;;0.30;0.30;;;10.80;99.90;;;;;;4417232;32;20081;-86
2021/05/27 01:13:21;;;;;;;0.30;0.30;;;10.80;99.90;;;;;;4405891;32;20558;-85
2021/05/27 01:15:48;;;;;;;0.22;0.22;;;10.80;99.90;;;;;;4401251;32;20074;-86
2021/05/27 01:18:16;;;;;;;0.30;0.30;;;10.80;99.90;;;;;;4415985;32;20070;-87
2021/05/27 01:20:44;;;;;;;0.20;0.20;;;10.80;99.90;;;;;;4417350;32;20034;-86
2021/05/27 01:23:10;;;;;;;0.40;0.40;;;10.80;99.90;;;;;;4416801;32;20494;-86
2021/05/27 01:25:38;;;;;;;0.40;0.40;;;10.70;99.90;;;;;;4416968;32;20069;-86
2021/05/27 01:28:03;;;;;;;0.55;0.40;;;10.80;99.90;;;;;;4416147;32;20413;-86
2021/05/27 01:30:30;;;;;;;0.28;0.28;;;10.80;99.90;;;;;;4416084;32;20065;-86
2021/05/27 01:32:55;;;;;;;0.40;0.40;;;10.70;99.90;;;;;;4416818;32;20081;-85
2021/05/27 01:35:25;;;;;;;0.60;0.55;;;10.60;99.90;;;;;;4416545;32;20069;-85
2021/05/27 01:37:51;;;;;;;0.37;0.37;;;10.50;99.90;;;;;;4416996;32;20066;-85
2021/05/27 01:40:20;;;;;;;0.35;0.35;;;10.50;99.90;;;;;;4417569;32;20081;-87
2021/05/27 01:42:47;;;;;;;0.73;0.52;;;10.50;99.90;;;;;;4416659;32;20432;-85
2021/05/27 01:45:13;;;;;;;0.30;0.30;;;10.60;99.90;;;;;;4416442;32;20085;-86
2021/05/27 01:47:40;;;;;;;0.30;0.30;;;10.70;99.90;;;;;;4416857;32;20074;-87
2021/05/27 01:50:08;;;;;;;0.20;0.20;;;10.60;99.90;;;;;;4411046;32;20066;-86
2021/05/27 01:52:34;;;;;;;0.28;0.28;;;10.50;99.90;;;;;;4427090;32;20099;-87
2021/05/27 01:55:02;;;;;;;0.30;0.30;;;10.40;99.90;;;;;;4431451;32;20092;-85
2021/05/27 01:57:28;;;;;;;0.40;0.40;;;10.50;99.90;;;;;;4430768;32;20065;-86
2021/05/27 01:59:53;;;;;;;1.02;0.35;;;10.50;99.90;;;;;;4431631;32;20093;-87
2021/05/27 02:02:20;;;;;;;0.45;0.45;;;10.40;99.90;;;;;;4431419;32;20064;-86
2021/05/27 02:04:45;;;;;;;0.20;0.20;;;10.50;99.90;;;;;;4428584;32;20061;-86
2021/05/27 02:07:13;;;;;;;0.40;0.40;;;10.50;99.90;;;;;;4416509;32;20133;-86
2021/05/27 02:09:39;;;;;;;0.35;0.35;;;10.50;99.90;;;;;;4416197;32;20070;-85
2021/05/27 02:12:05;;;;;;;2.17;0.40;;;10.50;99.90;;;;;;4414328;32;20566;-85
2021/05/27 02:14:31;;;;;;;0.30;0.30;;;10.60;99.90;;;;;;4416726;32;20081;-86
2021/05/27 02:16:57;;;;;;;0.45;0.45;;;10.60;99.90;;;;;;4416384;32;20527;-85
2021/05/27 02:19:23;;;;;;;0.37;0.37;;;10.50;99.90;;;;;;4416537;32;20069;-86
2021/05/27 02:21:48;;;;;;;0.35;0.35;;;10.40;99.90;;;;;;4416138;32;20629;-86
2021/05/27 02:24:14;;;;;;;1.15;0.47;;;10.50;99.90;;;;;;4416593;32;20057;-86
2021/05/27 02:26:41;;;;;;;0.10;0.10;;;10.40;99.90;;;;;;4416731;32;20078;-86
2021/05/27 02:29:06;;;;;;;0.30;0.30;;;10.40;99.90;;;;;;4416305;32;20078;-87
2021/05/27 02:31:32;;;;;;;0.45;0.43;;;10.40;99.90;;;;;;4415277;32;20132;-85
2021/05/27 02:33:59;;;;;;;0.37;0.37;;;10.50;99.90;;;;;;4416335;32;20069;-86
2021/05/27 02:36:26;;;;;;;0.35;0.35;;;10.60;99.90;;;;;;4416014;32;20178;-86
2021/05/27 02:38:53;;;;;;;0.30;0.30;;;10.60;99.90;;;;;;4415823;32;20066;-86
2021/05/27 02:41:19;;;;;;;0.40;0.40;;;10.50;99.90;;;;;;4415034;32;20065;-85
2021/05/27 02:43:45;;;;;;;2.70;0.65;;;10.40;99.90;;;;;;4416190;32;20073;-88
2021/05/27 02:46:11;;;;;;;0.88;0.45;;;10.40;99.90;;;;;;4415868;32;20065;-88
2021/05/27 02:48:38;;;;;;;0.80;0.40;;;10.40;99.90;;;;;;4414744;32;20078;-86
2021/05/27 02:51:06;;;;;;;0.35;0.35;;;10.50;99.90;;;;;;4415968;32;20068;-85
2021/05/27 02:53:31;;;;;;;0.50;0.50;;;10.60;99.90;;;;;;4427624;27;20085;-72
2021/05/27 02:55:57;;;;;;;2.83;1.08;;;10.60;99.90;;;;;;4428844;32;20443;-72
2021/05/27 02:58:22;;;;;;;0.37;0.37;;;10.60;99.90;;;;;;4428194;32;20399;-72
2021/05/27 03:00:49;;;;;;;0.25;0.25;;;10.50;99.90;;;;;;4436527;32;20061;-72
2021/05/27 03:03:16;;;;;;;0.30;0.30;;;10.50;99.90;;;;;;4444349;32;20065;-72
2021/05/27 03:05:43;;;;;;;0.40;0.40;;;10.50;99.90;;;;;;4443492;32;20073;-72
2021/05/27 03:08:09;;;;;;;0.52;0.47;;;10.50;99.90;;;;;;4444258;32;20084;-72
2021/05/27 03:10:34;;;;;;;0.50;0.50;;;10.60;99.90;;;;;;4443782;32;20076;-72
2021/05/27 03:13:00;;;;;;;0.10;0.10;;;10.50;99.90;;;;;;4435535;32;20659;-72
2021/05/27 03:15:26;;;;;;;0.37;0.37;;;10.60;99.90;;;;;;4428914;32;20070;-72
2021/05/27 03:17:51;;;;;;;0.40;0.40;;;10.50;99.90;;;;;;4433222;32;20138;-72
2021/05/27 03:20:17;;;;;;;0.60;0.55;;;10.50;99.90;;;;;;4443914;32;20076;-72
2021/05/27 03:22:42;;;;;;;0.25;0.25;;;10.60;99.90;;;;;;4444685;32;20073;-72
2021/05/27 03:25:08;;;;;;;9.57;0.30;;;10.60;99.90;;;;;;4444845;32;20122;-72
2021/05/27 03:27:34;;;;;;;0.55;0.35;;;10.60;99.90;;;;;;4443940;32;20590;-72
2021/05/27 03:30:00;;;;;;;0.30;0.30;;;10.70;99.90;;;;;;4443457;32;20428;-72
2021/05/27 03:32:26;;;;;;;2.83;0.88;;;10.70;99.90;;;;;;4443975;32;20073;-72
2021/05/27 03:34:51;;;;;;;0.40;0.40;;;10.70;99.90;;;;;;4444162;32;20069;-72
2021/05/27 03:37:17;;;;;;;0.50;0.50;;;10.70;99.90;;;;;;4443804;32;20486;-72
2021/05/27 03:40:10;;;;;;;0.40;0.40;;;10.70;99.90;;;;;;4446038;32;20069;-72
2021/05/27 03:42:28;;;;;;;0.28;0.28;;;10.60;99.90;;;;;;4444983;32;20428;-72
2021/05/27 03:44:53;;;;;;;0.50;0.50;;;10.70;99.90;;;;;;4446286;32;20073;-72
2021/05/27 03:47:19;;;;;;;0.30;0.30;;;10.70;99.90;;;;;;4445909;32;20065;-72
2021/05/27 03:49:44;;;;;;;6.60;1.00;;;10.70;99.90;;;;;;4430804;32;20076;-73
2021/05/27 03:52:10;;;;;;;0.30;0.30;;;10.70;99.90;;;;;;4443569;32;20069;-72
2021/05/27 03:54:35;;;;;;;0.30;0.30;;;10.60;99.90;;;;;;4444333;32;20186;-72
2021/05/27 03:57:01;;;;;;;0.20;0.20;;;10.60;99.90;;;;;;4446438;32;20053;-72
2021/05/27 04:00:43;;;;;;;0.30;0.30;;;10.60;99.90;;;;;;4446101;32;20467;-72
2021/05/27 04:02:11;;;;;;;0.40;0.40;;;10.70;99.90;;;;;;4444774;32;20475;-72
2021/05/27 04:07:11;;;;;;;0.32;0.32;;;10.80;99.90;;;;;;4445814;32;20077;-72
2021/05/27 04:07:25;;;;;;;0.30;0.30;;;10.70;99.90;;;;;;4445749;32;20070;-72
2021/05/27 04:09:50;;;;;;;0.30;0.30;;;10.70;99.90;;;;;;4446907;32;20084;-72
2021/05/27 04:12:47;;;;;;;0.30;0.30;;;10.80;99.90;;;;;;4447552;32;20077;-72
2021/05/27 04:15:33;;;;;;;0.52;0.43;;;10.80;99.90;;;;;;4445070;32;20069;-71
2021/05/27 04:17:52;;;;;;;0.40;0.40;;;10.90;99.90;;;;;;4442160;32;20073;-72
2021/05/27 04:20:18;;;;;;;0.40;0.40;;;10.70;99.90;;;;;;4437249;32;20423;-72
2021/05/27 04:22:46;;;;;;;0.60;0.50;;;10.80;99.90;;;;;;4436716;32;20080;-72
2021/05/27 04:25:13;;;;;;;0.85;0.45;;;10.90;99.90;;;;;;4443824;32;20065;-72
2021/05/27 04:27:40;;;;;;;0.30;0.30;;;10.90;99.90;;;;;;4444326;32;20361;-72
2021/05/27 04:30:21;;;;;;;0.22;0.22;;;11.00;99.90;;;;;;4444405;32;20077;-72
2021/05/27 04:33:07;;;;;;;0.35;0.35;;;11.00;99.90;;;;;;4444708;32;20076;-72
2021/05/27 04:35:36;;;;;;;0.30;0.30;;;11.00;99.90;;;;;;4444625;32;20081;-72
2021/05/27 04:38:05;;;;;;;0.30;0.30;;;10.90;99.90;;;;;;4445302;32;20509;-72
2021/05/27 04:40:32;;;;;;;0.85;0.47;;;10.90;99.90;;;;;;4436729;32;20065;-72
2021/05/27 04:42:57;;;;;;;0.20;0.20;;;10.90;99.90;;;;;;4429864;32;20400;-72
2021/05/27 04:45:24;;;;;;;0.55;0.32;;;11.10;99.90;;;;;;4428898;32;20078;-72
2021/05/27 04:47:50;;;;;;;2.85;1.35;;;11.10;99.90;;;;;;4433952;32;20085;-72
2021/05/27 04:50:15;;;;;;;2.10;1.05;;;11.10;99.90;;;;;;4443831;32;20356;-72
2021/05/27 04:52:41;;;;;;;0.32;0.32;;;11.20;99.90;;;;;;4442697;32;20069;-72
2021/05/27 04:55:09;;;;;;;0.50;0.50;;;11.20;99.90;;;;;;4444876;32;20072;-72
2021/05/27 04:57:35;;;;;;;0.40;0.40;;;11.20;99.90;;;;;;4444453;32;20070;-72
2021/05/27 05:00:00;;;;;;;0.37;0.37;;;11.10;99.90;;;;;;4441896;32;20093;-72
2021/05/27 05:02:26;;;;;;;0.68;0.47;;;11.20;99.90;;;;;;4437773;32;20073;-72
2021/05/27 05:04:51;;;;;;;0.47;0.47;;;11.10;99.90;;;;;;4442189;32;20076;-72
2021/05/27 05:07:17;;;;;;;0.40;0.40;;;11.30;99.90;;;;;;4444777;32;20763;-72
2021/05/27 05:09:45;;;;;;;0.30;0.30;;;11.40;99.90;;;;;;4435517;32;20586;-72
2021/05/27 05:12:10;;;;;;;0.20;0.20;;;11.40;99.90;;;;;;4440539;32;20459;-74
2021/05/27 05:14:36;;;;;;;0.30;0.30;;;11.50;99.90;;;;;;4445769;32;20073;-74
2021/05/27 05:17:01;;;;;;;1.23;0.65;;;11.60;99.90;;;;;;4427026;32;20487;-74
2021/05/27 05:19:27;;;;;;;0.30;0.30;;;11.60;99.90;;;;;;4435808;32;20135;-74
2021/05/27 05:21:52;;;;;;;1.55;0.55;;;11.70;99.90;;;;;;4439941;32;20068;-74
2021/05/27 05:24:18;;;;;;;0.32;0.32;;;11.90;99.90;;;;;;4431399;32;20495;-74
2021/05/27 05:26:43;;;;;;;0.30;0.30;;;12.00;99.90;;;;;;4425312;32;20135;-74
2021/05/27 05:29:09;;;;;;;0.50;0.50;;;11.90;99.90;;;;;;4434660;32;20148;-74
2021/05/27 05:31:34;;;;;;;0.88;0.43;;;12.00;99.90;;;;;;4418520;32;20716;-73
2021/05/27 05:34:00;;;;;;;0.32;0.30;;;12.00;99.90;;;;;;4434788;32;20138;-74
2021/05/27 05:36:25;;;;;;;0.30;0.30;;;12.00;99.90;;;;;;4435015;32;20094;-73
2021/05/27 05:38:51;;;;;;;0.40;0.40;;;12.00;99.90;;;;;;4438473;32;20089;-73
2021/05/27 05:41:17;;;;;;;0.20;0.20;;;12.00;99.90;;;;;;4438340;32;20060;-72
2021/05/27 05:43:43;;;;;;;0.28;0.28;;;12.10;99.90;;;;;;4431995;32;20161;-73
2021/05/27 05:46:09;;;;;;;15.20;0.60;;;12.20;99.90;;;;;;4436262;32;20070;-73
2021/05/27 05:48:35;;;;;;;1.33;0.85;;;12.10;99.90;;;;;;4434923;32;20127;-73
2021/05/27 05:51:04;;;;;;;0.32;0.32;;;12.10;99.90;;;;;;4431656;32;20085;-72
2021/05/27 05:53:30;;;;;;;0.20;0.20;;;12.10;99.90;;;;;;4432340;32;20128;-72
2021/05/27 05:55:55;;;;;;;1.33;0.35;;;12.10;99.90;;;;;;4434047;32;20517;-72
2021/05/27 05:58:21;;;;;;;0.30;0.30;;;12.00;99.90;;;;;;4438830;32;20068;-72
2021/05/27 06:00:47;;;;;;;0.30;0.30;;;12.00;99.90;;;;;;4430312;32;20560;-72
2021/05/27 06:03:13;;;;;;;0.30;0.30;;;12.10;99.90;;;;;;4440825;32;20508;-73
2021/05/27 06:05:39;;;;;;;0.40;0.40;;;12.10;99.90;;;;;;4434605;32;20319;-73
2021/05/27 06:08:05;;;;;;;0.40;0.40;;;12.10;99.90;;;;;;4437375;32;20109;-73
2021/05/27 06:10:31;;;;;;;0.57;0.57;;;12.20;99.90;;;;;;4429819;32;20068;-73
2021/05/27 06:12:57;;;;;;;2.95;0.60;;;12.30;99.90;;;;;;4435958;32;20084;-72
2021/05/27 06:15:24;;;;;;;0.37;0.37;;;12.30;99.90;;;;;;4433413;32;20073;-72
2021/05/27 06:17:51;;;;;;;0.30;0.30;;;12.30;99.90;;;;;;4429109;32;20096;-72
2021/05/27 06:20:20;;;;;;;0.35;0.35;;;12.30;99.90;;;;;;4435486;32;20160;-73
2021/05/27 06:22:46;;;;;;;0.40;0.40;;;12.40;99.90;;;;;;4428303;32;20069;-73
2021/05/27 06:25:12;;;;;;;0.65;0.65;;;12.50;99.90;;;;;;4435372;32;20081;-73
2021/05/27 06:27:38;;;;;;;0.68;0.57;;;12.40;99.90;;;;;;4436346;32;20113;-73
2021/05/27 06:30:05;;;;;;;0.40;0.40;;;12.50;99.90;;;;;;4434678;32;20069;-73
2021/05/27 06:32:34;;;;;;;1.45;0.60;;;12.60;99.90;;;;;;4435028;32;20065;-73
2021/05/27 06:34:59;;;;;;;0.32;0.32;;;12.50;99.90;;;;;;4434722;32;20105;-73
2021/05/27 06:37:25;;;;;;;0.68;0.68;;;12.50;99.90;;;;;;4435050;32;20622;-73
2021/05/27 06:39:50;;;;;;;1.27;0.50;;;12.40;99.90;;;;;;4429903;32;20136;-73
2021/05/27 06:42:16;;;;;;;0.47;0.47;;;12.50;99.90;;;;;;4434445;32;20069;-73
2021/05/27 06:44:41;;;;;;;0.47;0.47;;;12.50;99.90;;;;;;4428283;32;20435;-73
2021/05/27 06:47:07;;;;;;;0.28;0.28;;;12.40;99.90;;;;;;4434719;32;20504;-73
2021/05/27 06:49:32;;;;;;;0.47;0.47;;;12.50;99.90;;;;;;4428024;32;20065;-73
2021/05/27 06:52:00;;;;;;;0.37;0.37;;;12.60;99.90;;;;;;4429626;32;20092;-73
2021/05/27 06:54:26;;;;;;;0.43;0.43;;;12.60;99.90;;;;;;4432774;32;20151;-73
2021/05/27 06:56:52;;;;;;;0.40;0.40;;;12.70;99.90;;;;;;4428718;32;20432;-73
2021/05/27 06:59:18;;;;;;;0.68;0.55;;;12.70;99.90;;;;;;4430611;32;20129;-73
2021/05/27 07:01:45;;;;;;;1.90;0.57;;;12.70;99.90;;;;;;4432648;32;20072;-73
2021/05/27 07:04:10;;;;;;;0.40;0.40;;;12.60;99.90;;;;;;4435952;32;20124;-74
2021/05/27 07:06:36;;;;;;;0.43;0.43;;;12.50;99.90;;;;;;4433024;32;20172;-73
2021/05/27 07:09:02;;;;;;;0.93;0.62;;;12.40;99.90;;;;;;4429442;32;20077;-73
2021/05/27 07:11:28;;;;;;;0.30;0.30;;;12.30;99.90;;;;;;4434233;32;20163;-73
2021/05/27 07:13:53;;;;;;;1.35;0.50;;;12.30;99.90;;;;;;4430112;32;20056;-73
2021/05/27 07:16:19;;;;;;;0.20;0.20;;;12.10;99.90;;;;;;4428930;32;20755;-74
2021/05/27 07:18:44;;;;;;;0.30;0.30;;;12.10;99.90;;;;;;4425578;32;20069;-74
2021/05/27 07:21:10;;;;;;;0.30;0.30;;;12.00;99.90;;;;;;4430078;32;20077;-73
2021/05/27 07:23:35;;;;;;;0.50;0.50;;;12.10;99.90;;;;;;4426574;32;20526;-73
2021/05/27 07:26:02;;;;;;;0.35;0.35;;;12.20;99.90;;;;;;4427772;32;20077;-73
2021/05/27 07:28:28;;;;;;;0.20;0.20;;;12.30;99.90;;;;;;4431262;32;20405;-74
2021/05/27 07:30:54;;;;;;;0.30;0.30;;;12.40;99.90;;;;;;4434394;32;20092;-74
2021/05/27 07:33:20;;;;;;;0.28;0.28;;;12.50;99.90;;;;;;4428870;32;20170;-73
2021/05/27 07:35:45;;;;;;;0.40;0.40;;;12.50;99.90;;;;;;4430915;32;20118;-73
2021/05/27 07:38:12;;;;;;;0.40;0.40;;;12.50;99.90;;;;;;4434350;32;20077;-73
2021/05/27 07:40:38;;;;;;;0.32;0.32;;;12.50;99.90;;;;;;4434095;32;20068;-73
2021/05/27 07:43:04;;;;;;;0.40;0.40;;;12.50;99.90;;;;;;4434819;32;20069;-73
2021/05/27 07:45:30;;;;;;;0.30;0.30;;;12.50;99.90;;;;;;4435673;32;20536;-73
2021/05/27 07:47:55;;;;;;;0.20;0.20;;;12.50;99.90;;;;;;4435626;32;20134;-74
2021/05/27 07:50:21;;;;;;;0.40;0.40;;;12.70;99.90;;;;;;4432378;32;20497;-73
2021/05/27 07:52:49;;;;;;;0.35;0.35;;;12.80;99.90;;;;;;4432411;32;20119;-73
2021/05/27 07:55:16;;;;;;;0.37;0.32;;;12.90;99.90;;;;;;4432628;32;20094;-73
2021/05/27 07:57:42;;;;;;;0.20;0.20;;;12.80;99.90;;;;;;4437267;32;20537;-74
2021/05/27 08:00:08;;;;;;;0.40;0.40;;;12.90;99.90;;;;;;4439904;32;20077;-75
2021/05/27 08:02:34;;;;;;;0.50;0.50;;;12.90;99.90;;;;;;4435703;32;20084;-72
2021/05/27 08:05:00;;;;;;;0.20;0.20;;;12.90;99.90;;;;;;4432980;32;20476;-73
2021/05/27 08:07:25;;;;;;;0.28;0.28;;;12.90;99.90;;;;;;4435872;32;20093;-73
2021/05/27 08:09:51;;;;;;;0.62;0.40;;;13.00;99.90;;;;;;4435037;32;20081;-73
2021/05/27 08:12:16;;;;;;;0.30;0.30;;;12.90;99.90;;;;;;4437422;32;20097;-73
2021/05/27 08:14:42;;;;;;;0.30;0.30;;;13.00;99.90;;;;;;4429735;32;20070;-73
2021/05/27 08:17:07;;;;;;;0.40;0.40;;;13.10;99.90;;;;;;4430543;32;20069;-75
2021/05/27 08:19:33;;;;;;;0.20;0.20;;;13.10;99.90;;;;;;4434898;32;20080;-75
2021/05/27 08:21:59;;;;;;;0.40;0.40;;;13.20;99.90;;;;;;4432063;32;20466;-73
2021/05/27 08:24:24;;;;;;;0.20;0.20;;;13.30;99.90;;;;;;4432946;32;20078;-73
2021/05/27 08:26:50;;;;;;;1.52;1.27;;;13.30;99.90;;;;;;4433410;32;20080;-75
2021/05/27 08:29:16;;;;;;;0.30;0.30;;;13.40;99.90;;;;;;4431204;32;20502;-76
2021/05/27 08:31:41;;;;;;;0.20;0.20;;;13.50;99.90;;;;;;4437604;32;20082;-73
2021/05/27 08:34:08;;;;;;;0.20;0.20;;;13.60;99.90;;;;;;4436082;32;20078;-74
2021/05/27 08:36:34;;;;;;;0.37;0.22;;;13.70;99.90;;;;;;4431778;32;20576;-73
2021/05/27 08:41:28;;;;;;;0.30;0.30;;;13.70;99.90;;;;;;4418305;32;20152;-65
2021/05/27 08:43:53;;;;;;;0.30;0.30;;;13.80;99.90;;;;;;4421118;32;20077;-62
2021/05/27 08:46:22;;;;;;;0.37;0.37;;;13.80;99.90;;;;;;4424552;32;20065;-63
2021/05/27 08:48:47;;;;;;;0.30;0.30;;;13.60;99.90;;;;;;4423781;32;20086;-64
2021/05/27 08:51:13;;;;;;;1.55;0.50;;;13.50;99.90;;;;;;4415589;32;20074;-64
2021/05/27 08:53:39;;;;;;;0.40;0.40;;;13.50;99.90;;;;;;4425779;32;20061;-64
2021/05/27 08:56:04;;;;;;;0.20;0.20;;;13.50;99.90;;;;;;4424938;32;20169;-64
2021/05/27 08:58:30;;;;;;;0.77;0.77;;;13.40;99.90;;;;;;4412519;32;20086;-63
2021/05/27 09:00:56;;;;;;;2.40;1.17;;;13.40;99.90;;;;;;4414414;32;20089;-64
2021/05/27 09:03:23;;;;;;;0.20;0.20;;;13.50;99.90;;;;;;4433946;32;20136;-63
2021/05/27 09:05:58;;;;;;;0.37;0.37;;;13.50;99.90;;;;;;4414551;32;20077;-64
2021/05/27 09:08:28;;;;;;;0.20;0.20;;;13.60;99.90;;;;;;4413102;32;20130;-64
2021/05/27 09:11:00;;;;;;;0.40;0.40;;;13.70;99.90;;;;;;4434076;32;20069;-64
2021/05/27 09:13:25;;;;;;;0.20;0.20;;;14.00;99.90;;;;;;4428946;32;20077;-63
2021/05/27 09:15:51;;;;;;;0.30;0.30;;;14.30;99.90;;;;;;4430085;32;20498;-63
2021/05/27 09:18:37;;;;;;;0.25;0.25;;;14.40;99.90;;;;;;4431887;32;20157;-63
2021/05/27 09:21:05;;;;;;;0.20;0.20;;;14.50;99.90;;;;;;4411023;32;20091;-63
2021/05/27 09:23:32;;;;;;;0.30;0.30;;;14.50;99.90;;;;;;4430121;32;20120;-64
2021/05/27 09:26:15;;;;;;;0.20;0.20;;;14.50;99.90;;;;;;4426799;32;20090;-64
2021/05/27 09:28:42;;;;;;;0.20;0.20;;;14.60;99.90;;;;;;4423160;32;20090;-63
2021/05/27 09:31:11;;;;;;;0.30;0.30;;;14.60;99.90;;;;;;4411178;32;20078;-65
2021/05/27 09:33:40;;;;;;;0.20;0.20;;;14.50;99.90;;;;;;4426037;32;20093;-65
2021/05/27 09:36:08;;;;;;;0.22;0.22;;;14.40;99.90;;;;;;4412606;32;20070;-64
2021/05/27 09:38:38;;;;;;;0.17;0.17;;;14.30;99.90;;;;;;4409493;32;20073;-67
2021/05/27 09:41:25;;;;;;;0.30;0.30;;;14.30;99.90;;;;;;4408226;32;140857;-65
2021/05/27 09:43:54;;;;;;;0.20;0.20;;;14.40;99.90;;;;;;4395518;32;20061;-65
2021/05/27 09:46:21;;;;;;;0.30;0.30;;;14.40;99.90;;;;;;4403707;32;20207;-65
2021/05/27 09:48:47;;;;;;;0.25;0.25;;;14.30;99.90;;;;;;4406050;32;20181;-66
2021/05/27 09:51:26;;;;;;;0.30;0.30;;;14.20;99.90;;;;;;4405614;32;20077;-65
2021/05/27 09:53:54;;;;;;;0.25;0.25;;;14.20;99.90;;;;;;4406895;32;20095;-66
2021/05/27 09:56:32;;;;;;;0.30;0.30;;;14.50;99.90;;;;;;4413587;32;20077;-65
2021/05/27 09:58:58;;;;;;;0.20;0.20;;;15.10;99.90;;;;;;4392069;32;20057;-64
2021/05/27 10:01:23;;;;;;;0.30;0.30;;;15.60;99.90;;;;;;4409786;32;20154;-65
2021/05/27 10:03:49;;;;;;;0.60;0.52;;;15.90;99.90;;;;;;4406164;32;20067;-64
2021/05/27 10:06:14;;;;;;;0.20;0.20;;;16.10;99.90;;;;;;4408682;32;20091;-64
2021/05/27 10:08:56;;;;;;;0.60;0.60;;;16.30;99.90;;;;;;4411799;32;20124;-66
2021/05/27 10:11:24;;;;;;;0.20;0.20;;;16.40;99.90;;;;;;4389285;32;20544;-62
2021/05/27 10:13:51;;;;;;;0.30;0.30;;;16.50;99.90;;;;;;4410254;32;20464;-66
2021/05/27 10:16:19;;;;;;;6.15;1.62;;;16.50;99.90;;;;;;4415264;32;20381;-65
2021/05/27 10:18:48;;;;;;;0.20;0.20;;;16.40;99.90;;;;;;4400929;32;20069;-64
2021/05/27 10:21:14;;;;;;;0.20;0.20;;;16.50;99.90;;;;;;4409390;32;20145;-64
2021/05/27 10:23:40;;;;;;;0.20;0.20;;;16.40;99.90;;;;;;4408920;32;20558;-63
2021/05/27 10:26:06;;;;;;;0.28;0.28;;;16.40;99.90;;;;;;4407047;32;20081;-64
2021/05/27 10:28:32;;;;;;;0.30;0.30;;;16.40;99.90;;;;;;4386206;32;20518;-64
2021/05/27 10:30:58;;;;;;;0.20;0.20;;;16.30;99.90;;;;;;4399839;32;20153;-63
2021/05/27 10:33:25;;;;;;;0.85;0.75;;;16.40;99.90;;;;;;4412563;32;20062;-64
2021/05/27 10:36:00;;;;;;;0.30;0.30;;;16.50;99.90;;;;;;4410911;32;20092;-65
2021/05/27 10:38:48;;;;;;;0.20;0.20;;;16.40;99.90;;;;;;4409963;32;20061;-63
2021/05/27 10:41:20;;;;;;;0.20;0.20;;;16.40;99.90;;;;;;4401374;32;20062;-62
2021/05/27 10:44:07;;;;;;;0.20;0.20;;;16.10;99.90;;;;;;4413540;32;20085;-65
2021/05/27 10:46:42;;;;;;;0.20;0.20;;;15.90;99.90;;;;;;4407257;32;20516;-64
2021/05/27 10:49:08;;;;;;;0.30;0.30;;;15.70;99.90;;;;;;4423171;32;20061;-64
2021/05/27 10:51:49;;;;;;;0.30;0.30;;;15.60;99.90;;;;;;4428196;32;20069;-65
2021/05/27 10:54:27;;;;;;;0.30;0.30;;;15.60;99.90;;;;;;4426263;32;20097;-64
2021/05/27 10:56:53;;;;;;;0.20;0.20;;;15.60;99.90;;;;;;4416403;32;20540;-64
2021/05/27 10:59:19;;;;;;;0.30;0.30;;;15.60;99.90;;;;;;4422743;32;20085;-63
2021/05/27 11:01:47;;;;;;;0.37;0.37;;;15.90;99.90;;;;;;4400112;32;20086;-63
2021/05/27 11:04:33;;;;;;;0.20;0.20;;;16.10;99.90;;;;;;4420805;32;20074;-63
2021/05/27 11:07:17;;;;;;;0.25;0.25;;;16.10;99.90;;;;;;4403460;32;20057;-63
2021/05/27 11:09:46;;;;;;;0.43;0.43;;;16.10;99.90;;;;;;4422911;32;20073;-63
2021/05/27 11:12:17;;;;;;;0.30;0.30;;;16.30;99.90;;;;;;4416149;32;20057;-62
2021/05/27 11:14:47;;;;;;;0.20;0.20;;;16.20;99.90;;;;;;4423666;32;20162;-62
2021/05/27 11:17:18;;;;;;;0.20;0.20;;;16.10;99.90;;;;;;4425893;32;20091;-64
2021/05/27 11:19:50;;;;;;;;;;;16.20;99.90;;;;;;4427989;32;20486;-64
2021/05/27 11:22:35;;;;;;;0.20;0.20;;;16.20;99.90;;;;;;4426148;32;20366;-64
2021/05/27 11:25:10;;;;;;;0.20;0.20;;;16.70;99.90;;;;;;4425313;32;20082;-64
2021/05/27 11:27:40;;;;;;;0.20;0.20;;;17.30;99.90;;;;;;4432991;32;20129;-64
2021/05/27 11:30:27;;;;;;;0.30;0.30;;;17.20;99.90;;;;;;4412039;32;20142;-65
2021/05/27 11:33:03;;;;;;;0.30;0.30;;;16.70;99.90;;;;;;4410040;32;20109;-64
2021/05/27 11:35:42;;;;;;;0.20;0.20;;;16.40;99.90;;;;;;4417377;32;20086;-64
2021/05/27 11:38:13;;;;;;;0.20;0.20;;;16.20;99.90;;;;;;4388192;32;20089;-64
2021/05/27 11:40:44;;;;;;;0.20;0.20;;;16.10;99.90;;;;;;4426294;32;20077;-64
2021/05/27 11:43:10;;;;;;;0.30;0.30;;;16.00;99.90;;;;;;4423199;32;20416;-62
2021/05/27 11:45:41;;;;;;;0.20;0.20;;;16.00;99.90;;;;;;4422189;32;20073;-63
2021/05/27 11:48:24;;;;;;;0.30;0.30;;;15.90;99.90;;;;;;4415170;32;20078;-64
2021/05/27 11:50:51;;;;;;;0.30;0.30;;;15.50;99.90;;;;;;4428390;32;20089;-63
2021/05/27 11:53:20;;;;;;;0.20;0.20;;;15.20;99.90;;;;;;4425275;32;20616;-63
2021/05/27 11:55:53;;;;;;;0.25;0.25;;;14.60;99.90;;;;;;4436121;32;20199;-63
2021/05/27 11:58:33;;;;;;;0.20;0.20;;;14.30;99.90;;;;;;4416646;32;20065;-63
2021/05/27 12:01:12;;;;;;;0.30;0.30;;;14.00;99.90;;;;;;4418565;32;20060;-63
2021/05/27 12:03:38;;;;;;;0.22;0.22;;;13.80;99.90;;;;;;4432736;32;20090;-63
2021/05/27 12:06:03;;;;;;;0.30;0.30;;;13.90;99.90;;;;;;4413802;32;20074;-62
2021/05/27 12:08:29;;;;;;;0.20;0.20;;;14.10;99.90;;;;;;4425477;32;20093;-63
2021/05/27 12:10:54;;;;;;;0.20;0.20;;;14.30;99.90;;;;;;4431234;32;20396;-63
2021/05/27 12:13:22;;;;;;;0.28;0.28;;;14.70;99.90;;;;;;4430152;32;20116;-64
2021/05/27 12:15:49;;;;;;;0.20;0.20;;;15.00;99.90;;;;;;4419916;32;20085;-63
2021/05/27 12:18:17;;;;;;;0.20;0.20;;;15.90;99.90;;;;;;4433086;32;20482;-63
2021/05/27 12:20:47;;;;;;;0.20;0.20;;;17.10;99.90;;;;;;4401836;32;20057;-64
2021/05/27 12:23:16;;;;;;;0.20;0.20;;;18.30;99.90;;;;;;4431968;32;20134;-62
2021/05/27 12:25:46;;;;;;;0.20;0.20;;;18.90;99.90;;;;;;4414376;32;20087;-63
2021/05/27 12:28:17;;;;;;;0.20;0.20;;;19.30;99.90;;;;;;4418868;32;20073;-63
2021/05/27 12:30:46;;;;;;;0.20;0.20;;;20.00;99.90;;;;;;4419082;32;20085;-65
2021/05/27 12:33:17;;;;;;;0.10;0.10;;;20.60;99.90;;;;;;4416866;32;20074;-63
2021/05/27 12:35:43;;;;;;;0.20;0.20;;;21.00;99.90;;;;;;4427880;32;20142;-63
2021/05/27 12:38:19;;;;;;;0.10;0.10;;;21.00;99.90;;;;;;4430024;32;20049;-64
2021/05/27 12:40:48;;;;;;;0.10;0.10;;;21.30;99.90;;;;;;4432312;32;20058;-65
2021/05/27 12:43:34;;;;;;;0.10;0.10;;;21.30;99.90;;;;;;4428701;32;20061;-64
2021/05/27 12:46:01;;;;;;;0.10;0.10;;;20.50;99.90;;;;;;4409832;32;20418;-63
2021/05/27 12:48:31;;;;;;;0.10;0.10;;;19.60;99.90;;;;;;4428063;32;20584;-64
2021/05/27 12:50:59;;;;;;;0.20;0.20;;;18.90;99.90;;;;;;4415913;32;20100;-64
2021/05/27 12:53:31;;;;;;;0.20;0.20;;;18.40;99.90;;;;;;4429943;32;20146;-63
2021/05/27 12:56:10;;;;;;;0.20;0.20;;;17.80;99.90;;;;;;4436075;32;20053;-64